sensor_id;sensor_type;location;lat;lon;timestamp;P1;durP1;ratioP1;P2;durP2;ratioP2
20002;SDS011;10162;41.600;23.806;2022-09-09T00:02:23;11.77;;;9.80;;
20002;SDS011;10162;41.600;23.806;2022-09-09T00:08:47;12.70;;;10.47;;
20002;SDS011;10162;41.600;23.806;2022-09-09T00:11:40;12.17;;;10.60;;
20002;SDS011;10162;41.600;23.806;2022-09-09T00:17:47;10.63;;;9.50;;
20002;SDS011;10162;41.600;23.806;2022-09-09T00:20:59;12.23;;;10.93;;
20002;SDS011;10162;41.600;23.806;2022-09-09T00:23:35;11.57;;;10.47;;
20002;SDS011;10162;41.600;23.806;2022-09-09T00:28:39;12.67;;;11.33;;
20002;SDS011;10162;41.600;23.806;2022-09-09T00:31:15;11.93;;;10.67;;
20002;SDS011;10162;41.600;23.806;2022-09-09T00:37:33;16.57;;;10.37;;
20002;SDS011;10162;41.600;23.806;2022-09-09T00:40:01;11.97;;;10.07;;
20002;SDS011;10162;41.600;23.806;2022-09-09T00:42:41;11.27;;;10.17;;
20002;SDS011;10162;41.600;23.806;2022-09-09T00:49:00;12.33;;;10.97;;
20002;SDS011;10162;41.600;23.806;2022-09-09T00:57:53;11.27;;;10.07;;
20002;SDS011;10162;41.600;23.806;2022-09-09T01:12:15;12.80;;;10.27;;
20002;SDS011;10162;41.600;23.806;2022-09-09T01:18:01;13.23;;;10.43;;
20002;SDS011;10162;41.600;23.806;2022-09-09T01:26:59;11.03;;;9.83;;
20002;SDS011;10162;41.600;23.806;2022-09-09T01:29:28;11.37;;;10.17;;
20002;SDS011;10162;41.600;23.806;2022-09-09T01:31:55;11.10;;;10.00;;
20002;SDS011;10162;41.600;23.806;2022-09-09T01:34:42;11.57;;;10.37;;
20002;SDS011;10162;41.600;23.806;2022-09-09T01:37:11;11.57;;;10.37;;
20002;SDS011;10162;41.600;23.806;2022-09-09T01:39:39;11.43;;;10.27;;
20002;SDS011;10162;41.600;23.806;2022-09-09T01:42:12;13.63;;;11.07;;
20002;SDS011;10162;41.600;23.806;2022-09-09T01:48:27;12.20;;;10.17;;
20002;SDS011;10162;41.600;23.806;2022-09-09T01:51:08;11.57;;;10.43;;
20002;SDS011;10162;41.600;23.806;2022-09-09T01:53:36;12.07;;;10.63;;
20002;SDS011;10162;41.600;23.806;2022-09-09T01:56:08;13.60;;;10.97;;
20002;SDS011;10162;41.600;23.806;2022-09-09T01:58:54;12.30;;;11.00;;
20002;SDS011;10162;41.600;23.806;2022-09-09T02:07:58;11.50;;;10.30;;
20002;SDS011;10162;41.600;23.806;2022-09-09T02:10:50;13.33;;;11.40;;
20002;SDS011;10162;41.600;23.806;2022-09-09T02:17:32;11.90;;;10.67;;
20002;SDS011;10162;41.600;23.806;2022-09-09T02:20:10;13.80;;;10.67;;
20002;SDS011;10162;41.600;23.806;2022-09-09T02:22:59;12.40;;;11.10;;
20002;SDS011;10162;41.600;23.806;2022-09-09T02:28:52;12.10;;;10.80;;
20002;SDS011;10162;41.600;23.806;2022-09-09T02:31:22;13.67;;;10.80;;
20002;SDS011;10162;41.600;23.806;2022-09-09T02:34:09;14.77;;;11.20;;
20002;SDS011;10162;41.600;23.806;2022-09-09T02:36:39;11.23;;;10.07;;
20002;SDS011;10162;41.600;23.806;2022-09-09T02:39:08;12.13;;;10.37;;
20002;SDS011;10162;41.600;23.806;2022-09-09T02:41:36;12.10;;;10.43;;
20002;SDS011;10162;41.600;23.806;2022-09-09T02:55:18;11.90;;;10.33;;
20002;SDS011;10162;41.600;23.806;2022-09-09T02:57:56;13.50;;;10.37;;
20002;SDS011;10162;41.600;23.806;2022-09-09T03:00:27;12.10;;;10.10;;
20002;SDS011;10162;41.600;23.806;2022-09-09T03:02:56;14.20;;;10.83;;
20002;SDS011;10162;41.600;23.806;2022-09-09T03:08:02;12.13;;;10.73;;
20002;SDS011;10162;41.600;23.806;2022-09-09T03:10:29;11.47;;;10.27;;
20002;SDS011;10162;41.600;23.806;2022-09-09T03:12:55;11.17;;;9.97;;
20002;SDS011;10162;41.600;23.806;2022-09-09T03:15:22;10.77;;;9.70;;
20002;SDS011;10162;41.600;23.806;2022-09-09T03:17:47;11.63;;;9.93;;
20002;SDS011;10162;41.600;23.806;2022-09-09T03:20:14;14.23;;;10.47;;
20002;SDS011;10162;41.600;23.806;2022-09-09T03:22:41;11.53;;;10.13;;
20002;SDS011;10162;41.600;23.806;2022-09-09T03:28:04;15.23;;;10.67;;
20002;SDS011;10162;41.600;23.806;2022-09-09T03:30:30;11.30;;;10.17;;
20002;SDS011;10162;41.600;23.806;2022-09-09T03:32:56;12.40;;;10.50;;
20002;SDS011;10162;41.600;23.806;2022-09-09T03:39:14;12.50;;;9.90;;
20002;SDS011;10162;41.600;23.806;2022-09-09T03:41:41;13.60;;;10.87;;
20002;SDS011;10162;41.600;23.806;2022-09-09T03:47:20;13.30;;;11.30;;
20002;SDS011;10162;41.600;23.806;2022-09-09T03:49:48;12.07;;;10.87;;
20002;SDS011;10162;41.600;23.806;2022-09-09T03:52:15;11.83;;;9.97;;
20002;SDS011;10162;41.600;23.806;2022-09-09T03:58:41;11.70;;;10.53;;
20002;SDS011;10162;41.600;23.806;2022-09-09T04:01:10;11.40;;;10.20;;
20002;SDS011;10162;41.600;23.806;2022-09-09T04:06:39;11.17;;;9.83;;
20002;SDS011;10162;41.600;23.806;2022-09-09T04:09:05;10.97;;;9.73;;
20002;SDS011;10162;41.600;23.806;2022-09-09T04:11:32;12.20;;;10.60;;
20002;SDS011;10162;41.600;23.806;2022-09-09T04:16:54;12.60;;;10.87;;
20002;SDS011;10162;41.600;23.806;2022-09-09T04:19:21;13.03;;;10.70;;
20002;SDS011;10162;41.600;23.806;2022-09-09T04:21:47;12.63;;;10.60;;
20002;SDS011;10162;41.600;23.806;2022-09-09T04:27:08;12.37;;;10.63;;
20002;SDS011;10162;41.600;23.806;2022-09-09T04:29:35;13.90;;;10.73;;
20002;SDS011;10162;41.600;23.806;2022-09-09T04:32:01;13.07;;;10.43;;
20002;SDS011;10162;41.600;23.806;2022-09-09T04:37:08;13.53;;;11.10;;
20002;SDS011;10162;41.600;23.806;2022-09-09T04:39:33;11.77;;;10.57;;
20002;SDS011;10162;41.600;23.806;2022-09-09T04:42:00;12.73;;;10.87;;
20002;SDS011;10162;41.600;23.806;2022-09-09T04:44:33;15.40;;;11.10;;
20002;SDS011;10162;41.600;23.806;2022-09-09T04:46:58;11.93;;;10.73;;
20002;SDS011;10162;41.600;23.806;2022-09-09T04:49:24;13.47;;;10.50;;
20002;SDS011;10162;41.600;23.806;2022-09-09T04:51:51;13.10;;;10.70;;
20002;SDS011;10162;41.600;23.806;2022-09-09T04:57:13;13.60;;;12.20;;
20002;SDS011;10162;41.600;23.806;2022-09-09T04:59:39;14.57;;;11.50;;
20002;SDS011;10162;41.600;23.806;2022-09-09T05:02:05;13.93;;;11.70;;
20002;SDS011;10162;41.600;23.806;2022-09-09T05:07:26;16.27;;;13.37;;
20002;SDS011;10162;41.600;23.806;2022-09-09T05:09:53;13.27;;;11.33;;
20002;SDS011;10162;41.600;23.806;2022-09-09T05:12:19;14.27;;;11.63;;
20002;SDS011;10162;41.600;23.806;2022-09-09T05:18:37;14.93;;;10.50;;
20002;SDS011;10162;41.600;23.806;2022-09-09T05:21:06;15.83;;;11.73;;
20002;SDS011;10162;41.600;23.806;2022-09-09T05:23:48;14.90;;;11.67;;
20002;SDS011;10162;41.600;23.806;2022-09-09T05:26:18;13.20;;;11.37;;
20002;SDS011;10162;41.600;23.806;2022-09-09T05:28:47;14.27;;;12.63;;
20002;SDS011;10162;41.600;23.806;2022-09-09T05:31:14;12.97;;;11.67;;
20002;SDS011;10162;41.600;23.806;2022-09-09T05:36:56;15.73;;;11.77;;
20002;SDS011;10162;41.600;23.806;2022-09-09T05:39:23;15.23;;;11.70;;
20002;SDS011;10162;41.600;23.806;2022-09-09T05:41:50;14.00;;;12.60;;
20002;SDS011;10162;41.600;23.806;2022-09-09T05:47:20;22.30;;;16.53;;
20002;SDS011;10162;41.600;23.806;2022-09-09T05:49:46;16.27;;;14.17;;
20002;SDS011;10162;41.600;23.806;2022-09-09T05:52:12;13.13;;;11.73;;
20002;SDS011;10162;41.600;23.806;2022-09-09T05:54:40;13.80;;;11.10;;
20002;SDS011;10162;41.600;23.806;2022-09-09T05:57:07;11.83;;;10.60;;
20002;SDS011;10162;41.600;23.806;2022-09-09T05:59:33;12.03;;;10.10;;
20002;SDS011;10162;41.600;23.806;2022-09-09T06:01:59;14.23;;;10.93;;
20002;SDS011;10162;41.600;23.806;2022-09-09T06:04:31;12.70;;;11.40;;
20002;SDS011;10162;41.600;23.806;2022-09-09T06:06:58;10.93;;;9.83;;
20002;SDS011;10162;41.600;23.806;2022-09-09T06:09:24;12.37;;;10.57;;
20002;SDS011;10162;41.600;23.806;2022-09-09T06:11:50;12.50;;;10.30;;
20002;SDS011;10162;41.600;23.806;2022-09-09T06:14:18;11.70;;;10.60;;
20002;SDS011;10162;41.600;23.806;2022-09-09T06:16:46;11.93;;;10.80;;
20002;SDS011;10162;41.600;23.806;2022-09-09T06:19:19;11.57;;;10.40;;
20002;SDS011;10162;41.600;23.806;2022-09-09T06:21:46;15.90;;;11.83;;
20002;SDS011;10162;41.600;23.806;2022-09-09T06:24:13;15.17;;;10.60;;
20002;SDS011;10162;41.600;23.806;2022-09-09T06:26:42;11.93;;;10.13;;
20002;SDS011;10162;41.600;23.806;2022-09-09T06:29:11;10.47;;;9.43;;
20002;SDS011;10162;41.600;23.806;2022-09-09T06:31:38;10.90;;;9.80;;
20002;SDS011;10162;41.600;23.806;2022-09-09T06:34:33;10.87;;;9.87;;
20002;SDS011;10162;41.600;23.806;2022-09-09T06:37:01;11.83;;;10.73;;
20002;SDS011;10162;41.600;23.806;2022-09-09T06:39:36;11.40;;;10.30;;
20002;SDS011;10162;41.600;23.806;2022-09-09T06:42:02;12.60;;;9.43;;
20002;SDS011;10162;41.600;23.806;2022-09-09T06:44:54;10.93;;;9.83;;
20002;SDS011;10162;41.600;23.806;2022-09-09T06:47:43;12.20;;;10.43;;
20002;SDS011;10162;41.600;23.806;2022-09-09T06:50:09;12.00;;;10.00;;
20002;SDS011;10162;41.600;23.806;2022-09-09T06:52:36;11.67;;;10.03;;
20002;SDS011;10162;41.600;23.806;2022-09-09T06:55:03;10.40;;;9.33;;
20002;SDS011;10162;41.600;23.806;2022-09-09T06:57:31;10.63;;;9.63;;
20002;SDS011;10162;41.600;23.806;2022-09-09T06:59:57;11.77;;;10.67;;
20002;SDS011;10162;41.600;23.806;2022-09-09T07:02:23;12.03;;;10.13;;
20002;SDS011;10162;41.600;23.806;2022-09-09T07:04:50;14.00;;;12.60;;
20002;SDS011;10162;41.600;23.806;2022-09-09T07:07:17;14.97;;;13.43;;
20002;SDS011;10162;41.600;23.806;2022-09-09T07:09:43;24.33;;;20.57;;
20002;SDS011;10162;41.600;23.806;2022-09-09T07:12:10;23.50;;;20.63;;
20002;SDS011;10162;41.600;23.806;2022-09-09T07:14:43;18.97;;;15.80;;
20002;SDS011;10162;41.600;23.806;2022-09-09T07:17:10;14.50;;;13.10;;
20002;SDS011;10162;41.600;23.806;2022-09-09T07:19:38;12.67;;;11.47;;
20002;SDS011;10162;41.600;23.806;2022-09-09T07:22:05;13.30;;;11.80;;
20002;SDS011;10162;41.600;23.806;2022-09-09T07:27:02;12.53;;;11.43;;
20002;SDS011;10162;41.600;23.806;2022-09-09T07:29:28;13.20;;;11.93;;
20002;SDS011;10162;41.600;23.806;2022-09-09T07:31:55;12.70;;;11.30;;
20002;SDS011;10162;41.600;23.806;2022-09-09T07:34:27;12.43;;;11.20;;
20002;SDS011;10162;41.600;23.806;2022-09-09T07:36:52;12.27;;;11.07;;
20002;SDS011;10162;41.600;23.806;2022-09-09T07:39:19;11.57;;;10.07;;
20002;SDS011;10162;41.600;23.806;2022-09-09T07:41:48;11.82;;;10.35;;
20002;SDS011;10162;41.600;23.806;2022-09-09T07:47:12;9.95;;;8.98;;
20002;SDS011;10162;41.600;23.806;2022-09-09T07:49:42;10.20;;;9.05;;
20002;SDS011;10162;41.600;23.806;2022-09-09T07:52:08;14.65;;;9.15;;
20002;SDS011;10162;41.600;23.806;2022-09-09T07:57:32;10.07;;;9.02;;
20002;SDS011;10162;41.600;23.806;2022-09-09T07:59:58;9.70;;;8.75;;
20002;SDS011;10162;41.600;23.806;2022-09-09T08:02:24;10.30;;;9.23;;
20002;SDS011;10162;41.600;23.806;2022-09-09T08:05:01;11.15;;;9.07;;
20002;SDS011;10162;41.600;23.806;2022-09-09T08:07:27;9.63;;;8.52;;
20002;SDS011;10162;41.600;23.806;2022-09-09T08:09:54;9.98;;;9.00;;
20002;SDS011;10162;41.600;23.806;2022-09-09T08:12:25;8.00;;;7.30;;
20002;SDS011;10162;41.600;23.806;2022-09-09T08:14:53;10.55;;;7.68;;
20002;SDS011;10162;41.600;23.806;2022-09-09T08:17:20;8.95;;;8.15;;
20002;SDS011;10162;41.600;23.806;2022-09-09T08:19:46;11.57;;;8.38;;
20002;SDS011;10162;41.600;23.806;2022-09-09T08:22:16;9.13;;;8.20;;
20002;SDS011;10162;41.600;23.806;2022-09-09T08:28:20;8.20;;;7.50;;
20002;SDS011;10162;41.600;23.806;2022-09-09T08:30:45;11.52;;;7.80;;
20002;SDS011;10162;41.600;23.806;2022-09-09T08:33:13;9.35;;;8.27;;
20002;SDS011;10162;41.600;23.806;2022-09-09T08:35:52;17.98;;;9.05;;
20002;SDS011;10162;41.600;23.806;2022-09-09T08:38:21;9.00;;;8.10;;
20002;SDS011;10162;41.600;23.806;2022-09-09T08:40:47;8.40;;;7.60;;
20002;SDS011;10162;41.600;23.806;2022-09-09T08:43:19;10.23;;;8.35;;
20002;SDS011;10162;41.600;23.806;2022-09-09T08:52:12;8.85;;;7.78;;
20002;SDS011;10162;41.600;23.806;2022-09-09T08:58:46;8.52;;;7.63;;
20002;SDS011;10162;41.600;23.806;2022-09-09T09:11:09;8.23;;;7.53;;
20002;SDS011;10162;41.600;23.806;2022-09-09T09:16:19;8.23;;;7.43;;
20002;SDS011;10162;41.600;23.806;2022-09-09T09:18:48;7.63;;;6.93;;
20002;SDS011;10162;41.600;23.806;2022-09-09T09:21:21;7.47;;;6.72;;
20002;SDS011;10162;41.600;23.806;2022-09-09T09:30:22;8.48;;;6.75;;
20002;SDS011;10162;41.600;23.806;2022-09-09T09:32:56;7.57;;;6.78;;
20002;SDS011;10162;41.600;23.806;2022-09-09T09:39:25;7.70;;;6.82;;
20002;SDS011;10162;41.600;23.806;2022-09-09T09:41:56;7.80;;;6.88;;
20002;SDS011;10162;41.600;23.806;2022-09-09T09:47:17;7.50;;;6.65;;
20002;SDS011;10162;41.600;23.806;2022-09-09T09:49:59;9.27;;;6.80;;
20002;SDS011;10162;41.600;23.806;2022-09-09T09:52:33;7.07;;;6.35;;
20002;SDS011;10162;41.600;23.806;2022-09-09T09:55:02;7.50;;;6.43;;
20002;SDS011;10162;41.600;23.806;2022-09-09T09:57:32;6.97;;;6.03;;
20002;SDS011;10162;41.600;23.806;2022-09-09T10:00:13;7.00;;;6.03;;
20002;SDS011;10162;41.600;23.806;2022-09-09T10:03:01;6.75;;;6.13;;
20002;SDS011;10162;41.600;23.806;2022-09-09T10:08:32;7.53;;;6.70;;
20002;SDS011;10162;41.600;23.806;2022-09-09T10:11:44;8.65;;;6.68;;
20002;SDS011;10162;41.600;23.806;2022-09-09T10:31:45;7.10;;;6.50;;
20002;SDS011;10162;41.600;23.806;2022-09-09T10:38:16;7.25;;;6.65;;
20002;SDS011;10162;41.600;23.806;2022-09-09T10:40:49;8.18;;;6.43;;
20002;SDS011;10162;41.600;23.806;2022-09-09T10:58:25;7.07;;;6.35;;
20002;SDS011;10162;41.600;23.806;2022-09-09T11:01:01;8.77;;;6.35;;
20002;SDS011;10162;41.600;23.806;2022-09-09T11:03:47;7.93;;;6.15;;
20002;SDS011;10162;41.600;23.806;2022-09-09T11:06:38;7.07;;;6.38;;
20002;SDS011;10162;41.600;23.806;2022-09-09T11:09:08;6.72;;;6.00;;
20002;SDS011;10162;41.600;23.806;2022-09-09T11:11:45;6.13;;;5.63;;
20002;SDS011;10162;41.600;23.806;2022-09-09T11:18:06;7.50;;;6.05;;
20002;SDS011;10162;41.600;23.806;2022-09-09T11:20:38;6.30;;;5.80;;
20002;SDS011;10162;41.600;23.806;2022-09-09T11:23:05;8.45;;;6.10;;
20002;SDS011;10162;41.600;23.806;2022-09-09T11:32:19;6.43;;;5.78;;
20002;SDS011;10162;41.600;23.806;2022-09-09T11:48:39;12.77;;;5.90;;
20002;SDS011;10162;41.600;23.806;2022-09-09T11:51:29;6.80;;;6.13;;
20002;SDS011;10162;41.600;23.806;2022-09-09T11:58:00;6.32;;;5.72;;
20002;SDS011;10162;41.600;23.806;2022-09-09T12:00:47;6.88;;;6.20;;
20002;SDS011;10162;41.600;23.806;2022-09-09T12:07:03;6.88;;;6.10;;
20002;SDS011;10162;41.600;23.806;2022-09-09T12:28:17;8.52;;;6.30;;
20002;SDS011;10162;41.600;23.806;2022-09-09T12:37:36;6.70;;;6.13;;
20002;SDS011;10162;41.600;23.806;2022-09-09T12:42:44;7.07;;;6.35;;
20002;SDS011;10162;41.600;23.806;2022-09-09T12:49:04;6.57;;;5.97;;
20002;SDS011;10162;41.600;23.806;2022-09-09T12:51:32;6.70;;;5.80;;
20002;SDS011;10162;41.600;23.806;2022-09-09T12:57:53;6.78;;;6.18;;
20002;SDS011;10162;41.600;23.806;2022-09-09T13:00:23;7.15;;;6.25;;
20002;SDS011;10162;41.600;23.806;2022-09-09T13:02:51;6.57;;;5.97;;
20002;SDS011;10162;41.600;23.806;2022-09-09T13:09:09;6.85;;;5.82;;
20002;SDS011;10162;41.600;23.806;2022-09-09T13:11:39;7.40;;;6.10;;
20002;SDS011;10162;41.600;23.806;2022-09-09T13:18:16;6.60;;;5.68;;
20002;SDS011;10162;41.600;23.806;2022-09-09T13:20:47;7.22;;;6.53;;
20002;SDS011;10162;41.600;23.806;2022-09-09T13:23:14;7.70;;;6.07;;
20002;SDS011;10162;41.600;23.806;2022-09-09T13:29:28;6.50;;;5.90;;
20002;SDS011;10162;41.600;23.806;2022-09-09T13:32:03;6.05;;;5.53;;
20002;SDS011;10162;41.600;23.806;2022-09-09T13:38:28;5.95;;;5.50;;
20002;SDS011;10162;41.600;23.806;2022-09-09T13:41:06;6.57;;;5.97;;
20002;SDS011;10162;41.600;23.806;2022-09-09T13:47:22;5.97;;;5.30;;
20002;SDS011;10162;41.600;23.806;2022-09-09T13:52:58;15.15;;;5.55;;
20002;SDS011;10162;41.600;23.806;2022-09-09T13:59:13;6.85;;;5.88;;
20002;SDS011;10162;41.600;23.806;2022-09-09T14:01:40;12.75;;;7.07;;
20002;SDS011;10162;41.600;23.806;2022-09-09T14:07:54;6.93;;;5.97;;
20002;SDS011;10162;41.600;23.806;2022-09-09T14:10:19;9.55;;;7.63;;
20002;SDS011;10162;41.600;23.806;2022-09-09T14:12:46;64.20;;;37.53;;
20002;SDS011;10162;41.600;23.806;2022-09-09T14:18:59;97.05;;;62.40;;
20002;SDS011;10162;41.600;23.806;2022-09-09T14:21:25;30.75;;;19.80;;
20002;SDS011;10162;41.600;23.806;2022-09-09T14:27:40;13.85;;;8.55;;
20002;SDS011;10162;41.600;23.806;2022-09-09T14:30:07;10.75;;;8.88;;
20002;SDS011;10162;41.600;23.806;2022-09-09T14:32:34;30.75;;;15.35;;
20002;SDS011;10162;41.600;23.806;2022-09-09T14:38:48;20.33;;;10.35;;
20002;SDS011;10162;41.600;23.806;2022-09-09T14:41:15;24.05;;;15.95;;
20002;SDS011;10162;41.600;23.806;2022-09-09T14:47:30;16.23;;;10.38;;
20002;SDS011;10162;41.600;23.806;2022-09-09T14:49:56;9.38;;;6.65;;
20002;SDS011;10162;41.600;23.806;2022-09-09T14:52:21;16.85;;;9.57;;
20002;SDS011;10162;41.600;23.806;2022-09-09T14:58:35;20.77;;;13.52;;
20002;SDS011;10162;41.600;23.806;2022-09-09T15:01:02;18.38;;;13.20;;
20002;SDS011;10162;41.600;23.806;2022-09-09T15:03:32;27.00;;;12.27;;
20002;SDS011;10162;41.600;23.806;2022-09-09T15:06:04;39.75;;;26.90;;
20002;SDS011;10162;41.600;23.806;2022-09-09T15:08:31;12.10;;;8.80;;
20002;SDS011;10162;41.600;23.806;2022-09-09T15:11:00;10.40;;;8.18;;
20002;SDS011;10162;41.600;23.806;2022-09-09T15:13:27;14.65;;;10.43;;
20002;SDS011;10162;41.600;23.806;2022-09-09T15:19:39;9.57;;;7.30;;
20002;SDS011;10162;41.600;23.806;2022-09-09T15:22:07;7.75;;;6.93;;
20002;SDS011;10162;41.600;23.806;2022-09-09T15:28:21;20.30;;;14.27;;
20002;SDS011;10162;41.600;23.806;2022-09-09T15:30:47;18.55;;;12.68;;
20002;SDS011;10162;41.600;23.806;2022-09-09T15:33:17;13.63;;;10.38;;
20002;SDS011;10162;41.600;23.806;2022-09-09T15:39:31;8.05;;;6.53;;
20002;SDS011;10162;41.600;23.806;2022-09-09T15:41:56;9.82;;;7.10;;
20002;SDS011;10162;41.600;23.806;2022-09-09T15:44:22;10.25;;;8.13;;
20002;SDS011;10162;41.600;23.806;2022-09-09T15:46:51;9.80;;;8.52;;
20002;SDS011;10162;41.600;23.806;2022-09-09T15:49:22;9.57;;;7.40;;
20002;SDS011;10162;41.600;23.806;2022-09-09T15:51:51;11.25;;;7.35;;
20002;SDS011;10162;41.600;23.806;2022-09-09T15:54:32;11.18;;;9.10;;
20002;SDS011;10162;41.600;23.806;2022-09-09T15:57:00;7.10;;;6.40;;
20002;SDS011;10162;41.600;23.806;2022-09-09T15:59:29;10.75;;;7.57;;
20002;SDS011;10162;41.600;23.806;2022-09-09T16:01:55;11.10;;;8.23;;
20002;SDS011;10162;41.600;23.806;2022-09-09T16:04:26;9.25;;;8.07;;
20002;SDS011;10162;41.600;23.806;2022-09-09T16:06:58;8.75;;;6.45;;
20002;SDS011;10162;41.600;23.806;2022-09-09T16:09:26;7.75;;;6.65;;
20002;SDS011;10162;41.600;23.806;2022-09-09T16:11:52;11.48;;;6.68;;
20002;SDS011;10162;41.600;23.806;2022-09-09T16:18:07;6.65;;;6.05;;
20002;SDS011;10162;41.600;23.806;2022-09-09T16:20:33;9.05;;;7.03;;
20002;SDS011;10162;41.600;23.806;2022-09-09T16:22:59;8.25;;;7.50;;
20002;SDS011;10162;41.600;23.806;2022-09-09T16:29:14;7.63;;;6.78;;
20002;SDS011;10162;41.600;23.806;2022-09-09T16:31:41;6.63;;;6.05;;
20002;SDS011;10162;41.600;23.806;2022-09-09T16:37:55;8.90;;;6.88;;
20002;SDS011;10162;41.600;23.806;2022-09-09T16:40:22;8.48;;;7.30;;
20002;SDS011;10162;41.600;23.806;2022-09-09T16:42:48;9.18;;;6.90;;
20002;SDS011;10162;41.600;23.806;2022-09-09T16:45:13;8.32;;;6.45;;
20002;SDS011;10162;41.600;23.806;2022-09-09T16:47:39;8.05;;;7.07;;
20002;SDS011;10162;41.600;23.806;2022-09-09T16:50:05;7.43;;;6.75;;
20002;SDS011;10162;41.600;23.806;2022-09-09T16:52:31;8.02;;;6.88;;
20002;SDS011;10162;41.600;23.806;2022-09-09T16:54:57;7.93;;;6.80;;
20002;SDS011;10162;41.600;23.806;2022-09-09T16:57:23;8.00;;;6.85;;
20002;SDS011;10162;41.600;23.806;2022-09-09T16:59:48;8.68;;;7.35;;
20002;SDS011;10162;41.600;23.806;2022-09-09T17:02:15;7.68;;;6.85;;
20002;SDS011;10162;41.600;23.806;2022-09-09T17:04:41;8.70;;;7.45;;
20002;SDS011;10162;41.600;23.806;2022-09-09T17:07:07;9.02;;;6.70;;
20002;SDS011;10162;41.600;23.806;2022-09-09T17:09:33;9.55;;;6.97;;
20002;SDS011;10162;41.600;23.806;2022-09-09T17:11:59;8.18;;;7.15;;
20002;SDS011;10162;41.600;23.806;2022-09-09T17:14:25;8.48;;;7.07;;
20002;SDS011;10162;41.600;23.806;2022-09-09T17:16:50;8.20;;;7.40;;
20002;SDS011;10162;41.600;23.806;2022-09-09T17:19:17;10.60;;;6.93;;
20002;SDS011;10162;41.600;23.806;2022-09-09T17:21:43;8.93;;;7.25;;
20002;SDS011;10162;41.600;23.806;2022-09-09T17:24:10;8.82;;;7.10;;
20002;SDS011;10162;41.600;23.806;2022-09-09T17:26:36;8.68;;;7.63;;
20002;SDS011;10162;41.600;23.806;2022-09-09T17:29:03;10.90;;;7.85;;
20002;SDS011;10162;41.600;23.806;2022-09-09T17:31:29;9.43;;;7.60;;
20002;SDS011;10162;41.600;23.806;2022-09-09T17:33:57;10.40;;;8.25;;
20002;SDS011;10162;41.600;23.806;2022-09-09T17:36:25;8.63;;;7.63;;
20002;SDS011;10162;41.600;23.806;2022-09-09T17:38:54;9.75;;;7.20;;
20002;SDS011;10162;41.600;23.806;2022-09-09T17:41:20;7.78;;;7.07;;
20002;SDS011;10162;41.600;23.806;2022-09-09T17:43:48;7.78;;;6.97;;
20002;SDS011;10162;41.600;23.806;2022-09-09T17:46:19;8.95;;;7.78;;
20002;SDS011;10162;41.600;23.806;2022-09-09T17:48:47;9.75;;;6.97;;
20002;SDS011;10162;41.600;23.806;2022-09-09T17:51:16;9.40;;;7.90;;
20002;SDS011;10162;41.600;23.806;2022-09-09T17:53:56;8.15;;;7.20;;
20002;SDS011;10162;41.600;23.806;2022-09-09T17:56:24;8.57;;;7.78;;
20002;SDS011;10162;41.600;23.806;2022-09-09T17:58:52;12.85;;;7.95;;
20002;SDS011;10162;41.600;23.806;2022-09-09T18:01:19;7.65;;;6.95;;
20002;SDS011;10162;41.600;23.806;2022-09-09T18:03:54;10.95;;;7.22;;
20002;SDS011;10162;41.600;23.806;2022-09-09T18:06:24;9.13;;;7.50;;
20002;SDS011;10162;41.600;23.806;2022-09-09T18:08:53;8.45;;;7.60;;
20002;SDS011;10162;41.600;23.806;2022-09-09T18:11:21;11.43;;;7.82;;
20002;SDS011;10162;41.600;23.806;2022-09-09T18:17:07;13.73;;;7.65;;
20002;SDS011;10162;41.600;23.806;2022-09-09T18:19:33;8.65;;;6.93;;
20002;SDS011;10162;41.600;23.806;2022-09-09T18:22:00;8.60;;;7.45;;
20002;SDS011;10162;41.600;23.806;2022-09-09T18:27:14;8.47;;;7.70;;
20002;SDS011;10162;41.600;23.806;2022-09-09T18:29:40;9.52;;;8.10;;
20002;SDS011;10162;41.600;23.806;2022-09-09T18:32:06;9.10;;;7.57;;
20002;SDS011;10162;41.600;23.806;2022-09-09T18:34:45;8.77;;;7.93;;
20002;SDS011;10162;41.600;23.806;2022-09-09T18:37:11;8.50;;;7.60;;
20002;SDS011;10162;41.600;23.806;2022-09-09T18:39:37;8.93;;;8.13;;
20002;SDS011;10162;41.600;23.806;2022-09-09T18:42:03;9.50;;;8.07;;
20002;SDS011;10162;41.600;23.806;2022-09-09T18:44:30;9.88;;;8.02;;
20002;SDS011;10162;41.600;23.806;2022-09-09T18:46:58;12.73;;;8.55;;
20002;SDS011;10162;41.600;23.806;2022-09-09T18:49:25;13.07;;;7.93;;
20002;SDS011;10162;41.600;23.806;2022-09-09T18:51:51;9.43;;;8.50;;
20002;SDS011;10162;41.600;23.806;2022-09-09T18:54:22;10.00;;;8.80;;
20002;SDS011;10162;41.600;23.806;2022-09-09T18:56:50;9.47;;;8.33;;
20002;SDS011;10162;41.600;23.806;2022-09-09T18:59:18;10.00;;;8.43;;
20002;SDS011;10162;41.600;23.806;2022-09-09T19:01:46;10.03;;;8.37;;
20002;SDS011;10162;41.600;23.806;2022-09-09T19:04:13;10.80;;;9.10;;
20002;SDS011;10162;41.600;23.806;2022-09-09T19:06:40;9.47;;;8.57;;
20002;SDS011;10162;41.600;23.806;2022-09-09T19:09:11;11.27;;;9.37;;
20002;SDS011;10162;41.600;23.806;2022-09-09T19:11:39;13.63;;;9.87;;
20002;SDS011;10162;41.600;23.806;2022-09-09T19:17:02;11.57;;;10.37;;
20002;SDS011;10162;41.600;23.806;2022-09-09T19:19:31;10.50;;;9.50;;
20002;SDS011;10162;41.600;23.806;2022-09-09T19:21:58;10.93;;;9.83;;
20002;SDS011;10162;41.600;23.806;2022-09-09T19:27:15;12.37;;;9.90;;
20002;SDS011;10162;41.600;23.806;2022-09-09T19:29:41;13.00;;;10.67;;
20002;SDS011;10162;41.600;23.806;2022-09-09T19:32:08;12.93;;;10.43;;
20002;SDS011;10162;41.600;23.806;2022-09-09T19:34:44;13.00;;;9.77;;
20002;SDS011;10162;41.600;23.806;2022-09-09T19:37:10;11.40;;;10.20;;
20002;SDS011;10162;41.600;23.806;2022-09-09T19:39:36;11.00;;;9.30;;
20002;SDS011;10162;41.600;23.806;2022-09-09T19:42:02;11.17;;;10.07;;
20002;SDS011;10162;41.600;23.806;2022-09-09T19:44:28;12.27;;;10.67;;
20002;SDS011;10162;41.600;23.806;2022-09-09T19:46:53;11.27;;;10.17;;
20002;SDS011;10162;41.600;23.806;2022-09-09T19:49:19;12.07;;;10.97;;
20002;SDS011;10162;41.600;23.806;2022-09-09T19:51:45;15.03;;;10.90;;
20002;SDS011;10162;41.600;23.806;2022-09-09T19:56:51;15.30;;;10.43;;
20002;SDS011;10162;41.600;23.806;2022-09-09T19:59:17;12.87;;;10.30;;
20002;SDS011;10162;41.600;23.806;2022-09-09T20:01:43;13.40;;;10.07;;
20002;SDS011;10162;41.600;23.806;2022-09-09T20:07:36;10.93;;;9.73;;
20002;SDS011;10162;41.600;23.806;2022-09-09T20:10:01;11.37;;;10.17;;
20002;SDS011;10162;41.600;23.806;2022-09-09T20:12:27;11.33;;;9.90;;
20002;SDS011;10162;41.600;23.806;2022-09-09T20:17:53;10.77;;;9.67;;
20002;SDS011;10162;41.600;23.806;2022-09-09T20:20:19;14.30;;;10.33;;
20002;SDS011;10162;41.600;23.806;2022-09-09T20:22:45;11.33;;;10.23;;
20002;SDS011;10162;41.600;23.806;2022-09-09T20:28:13;11.37;;;10.17;;
20002;SDS011;10162;41.600;23.806;2022-09-09T20:30:39;11.43;;;10.23;;
20002;SDS011;10162;41.600;23.806;2022-09-09T20:33:05;10.53;;;9.43;;
20002;SDS011;10162;41.600;23.806;2022-09-09T20:39:18;10.37;;;9.37;;
20002;SDS011;10162;41.600;23.806;2022-09-09T20:41:45;12.67;;;10.57;;
20002;SDS011;10162;41.600;23.806;2022-09-09T20:47:10;12.07;;;10.43;;
20002;SDS011;10162;41.600;23.806;2022-09-09T20:49:35;10.73;;;9.63;;
20002;SDS011;10162;41.600;23.806;2022-09-09T20:52:01;12.20;;;10.67;;